Time;durP1;ratioP1;P1;durP2;ratioP2;P2;SDS_P1;SDS_P2;PMS_P1;PMS_P2;Temp;Humidity;BMP_temperature;BMP_pressure;BME280_temperature;BME280_humidity;BME280_pressure;Samples;Min_cycle;Max_cycle;Signal;HPM_P1;HPM_P2
2022/06/02 00:02:27;;;;;;;5.47;4.90;;;;;;;;;;5118120;27;20448;-75
2022/06/02 00:05:04;;;;;;;5.00;4.50;;;;;;;;;;5127742;27;20434;-76
2022/06/02 00:07:41;;;;;;;6.40;4.50;;;;;;;;;;5131088;27;20481;-75
2022/06/02 00:10:12;;;;;;;4.97;4.57;;;;;;;;;;5131931;27;20792;-76
2022/06/02 00:12:47;;;;;;;8.80;4.60;;;;;;;;;;5132157;27;20433;-76
2022/06/02 00:15:18;;;;;;;6.43;4.57;;;;;;;;;;5129142;27;20465;-75
2022/06/02 00:17:49;;;;;;;5.80;5.30;;;;;;;;;;5128459;27;20462;-76
2022/06/02 00:20:18;;;;;;;5.30;4.80;;;;;;;;;;5112986;28;20445;-76
2022/06/02 00:22:53;;;;;;;5.87;4.70;;;;;;;;;;5132740;27;20430;-76
2022/06/02 00:25:24;;;;;;;6.63;4.87;;;;;;;;;;5117737;27;20470;-75
2022/06/02 00:27:55;;;;;;;5.57;5.00;;;;;;;;;;5110744;28;20524;-75
2022/06/02 00:30:23;;;;;;;5.30;4.80;;;;;;;;;;5110543;28;20442;-75
2022/06/02 00:32:55;;;;;;;7.17;4.70;;;;;;;;;;5093340;28;20438;-76
2022/06/02 00:35:27;;;;;;;5.50;5.00;;;;;;;;;;5111263;28;20449;-75
2022/06/02 00:37:59;;;;;;;5.97;5.37;;;;;;;;;;5110791;28;20926;-76
2022/06/02 00:40:27;;;;;;;6.73;5.80;;;;;;;;;;5113075;28;20443;-76
2022/06/02 00:43:10;;;;;;;5.63;5.20;;;;;;;;;;5128613;27;20434;-74
2022/06/02 00:45:42;;;;;;;5.30;4.80;;;;;;;;;;5116240;27;20431;-74
2022/06/02 00:48:13;;;;;;;8.00;6.47;;;;;;;;;;5121525;27;20511;-75
2022/06/02 00:50:47;;;;;;;6.30;5.77;;;;;;;;;;5112766;27;20429;-76
2022/06/02 00:53:19;;;;;;;7.07;5.50;;;;;;;;;;5130516;27;20790;-74
2022/06/02 00:58:37;;;;;;;7.00;5.87;;;;;;;;;;5130287;27;20429;-75
2022/06/02 01:01:08;;;;;;;6.10;5.43;;;;;;;;;;5116447;27;20443;-75
2022/06/02 01:03:39;;;;;;;7.40;5.43;;;;;;;;;;5127878;27;20492;-76
2022/06/02 01:06:23;;;;;;;5.73;5.13;;;;;;;;;;5110663;27;20482;-75
2022/06/02 01:09:01;;;;;;;6.93;6.23;;;;;;;;;;5111766;27;20488;-77
2022/06/02 01:11:30;;;;;;;7.20;5.87;;;;;;;;;;5111497;27;20943;-75
2022/06/02 01:14:05;;;;;;;6.50;5.53;;;;;;;;;;5109588;28;20944;-75
2022/06/02 01:16:37;;;;;;;6.20;5.60;;;;;;;;;;5109993;28;20531;-76
2022/06/02 01:19:17;;;;;;;5.60;5.10;;;;;;;;;;5110758;28;20810;-75
2022/06/02 01:21:59;;;;;;;6.97;6.13;;;;;;;;;;5109260;28;20511;-74
2022/06/02 01:24:44;;;;;;;6.70;5.80;;;;;;;;;;5125689;27;20575;-75
2022/06/02 01:27:20;;;;;;;8.50;5.40;;;;;;;;;;5112057;28;20460;-75
2022/06/02 01:29:56;;;;;;;7.43;6.07;;;;;;;;;;5116472;27;20442;-75
2022/06/02 01:32:29;;;;;;;7.57;6.17;;;;;;;;;;5119858;28;20453;-75
2022/06/02 01:35:01;;;;;;;11.63;6.27;;;;;;;;;;5129921;28;20438;-75
2022/06/02 01:37:32;;;;;;;10.77;6.67;;;;;;;;;;5129942;27;20906;-75
2022/06/02 01:40:05;;;;;;;8.43;6.40;;;;;;;;;;5130508;28;20433;-75
2022/06/02 01:42:38;;;;;;;10.20;6.87;;;;;;;;;;5112441;28;20450;-76
2022/06/02 01:45:12;;;;;;;8.20;7.10;;;;;;;;;;5118277;28;20446;-75
2022/06/02 01:47:42;;;;;;;8.40;6.20;;;;;;;;;;5112063;28;20478;-76
2022/06/02 01:50:16;;;;;;;8.53;6.27;;;;;;;;;;5115971;27;20435;-76
2022/06/02 01:52:45;;;;;;;10.73;7.03;;;;;;;;;;5120473;27;20437;-75
2022/06/02 01:55:17;;;;;;;7.50;6.63;;;;;;;;;;5108219;27;20436;-75
2022/06/02 01:57:51;;;;;;;8.23;6.70;;;;;;;;;;5115784;27;20462;-76
2022/06/02 02:00:19;;;;;;;7.63;6.67;;;;;;;;;;5134135;27;20446;-76
2022/06/02 02:02:52;;;;;;;8.90;7.10;;;;;;;;;;5115977;27;20441;-76
2022/06/02 02:05:24;;;;;;;8.27;7.17;;;;;;;;;;5134931;27;20433;-75
2022/06/02 02:07:59;;;;;;;7.63;6.60;;;;;;;;;;5118745;27;20823;-74
2022/06/02 02:10:29;;;;;;;8.40;7.37;;;;;;;;;;5115528;28;20430;-76
2022/06/02 02:13:02;;;;;;;12.23;8.57;;;;;;;;;;5134101;27;20441;-75
2022/06/02 02:15:36;;;;;;;13.23;8.10;;;;;;;;;;5120136;27;20427;-76
2022/06/02 02:18:16;;;;;;;8.50;7.47;;;;;;;;;;5129335;27;20464;-75
2022/06/02 02:20:52;;;;;;;9.93;7.50;;;;;;;;;;5133337;27;20459;-76
2022/06/02 02:23:22;;;;;;;12.30;8.10;;;;;;;;;;5133967;27;20440;-75
2022/06/02 02:25:53;;;;;;;13.00;9.93;;;;;;;;;;5134264;27;20854;-75
2022/06/02 02:28:26;;;;;;;14.70;9.27;;;;;;;;;;5113071;27;20480;-75
2022/06/02 02:31:02;;;;;;;9.57;8.57;;;;;;;;;;5130840;27;20434;-76
2022/06/02 02:33:49;;;;;;;15.17;9.30;;;;;;;;;;5114885;28;20930;-76
2022/06/02 02:36:22;;;;;;;11.27;8.17;;;;;;;;;;5119257;27;20461;-75
2022/06/02 02:38:53;;;;;;;9.33;8.23;;;;;;;;;;5118359;27;20427;-76
2022/06/02 02:41:25;;;;;;;12.33;8.67;;;;;;;;;;5094386;28;20445;-76
2022/06/02 02:43:56;;;;;;;10.17;9.27;;;;;;;;;;5094829;28;20438;-77
2022/06/02 02:46:26;;;;;;;9.20;8.30;;;;;;;;;;5112972;28;20534;-75
2022/06/02 02:48:57;;;;;;;10.20;8.80;;;;;;;;;;5112990;28;20504;-77
2022/06/02 02:51:33;;;;;;;11.70;9.33;;;;;;;;;;5113064;28;20554;-77
2022/06/02 02:54:03;;;;;;;14.52;9.45;;;;;;;;;;5114646;28;20438;-75
2022/06/02 02:56:35;;;;;;;12.80;7.80;;;;;;;;;;5115562;27;20890;-76
2022/06/02 02:59:05;;;;;;;13.18;8.52;;;;;;;;;;5119078;27;20422;-76
2022/06/02 03:01:37;;;;;;;11.37;8.70;;;;;;;;;;5115119;27;20192;-76
2022/06/02 03:04:10;;;;;;;11.67;9.17;;;;;;;;;;5112032;28;20900;-75
2022/06/02 03:06:39;;;;;;;10.93;9.30;;;;;;;;;;5111898;28;20503;-76
2022/06/02 03:09:10;;;;;;;10.77;8.60;;;;;;;;;;5112401;28;20497;-75
2022/06/02 03:11:51;;;;;;;13.80;8.85;;;;;;;;;;5094532;28;20808;-76
2022/06/02 03:14:24;;;;;;;11.07;8.68;;;;;;;;;;5113194;28;20200;-75
2022/06/02 03:16:53;;;;;;;10.07;8.20;;;;;;;;;;5113840;28;20570;-76
2022/06/02 03:19:23;;;;;;;10.17;8.03;;;;;;;;;;5132163;27;20443;-74
2022/06/02 03:21:55;;;;;;;11.07;8.97;;;;;;;;;;5119076;27;20431;-75
2022/06/02 03:24:42;;;;;;;10.37;8.70;;;;;;;;;;5126950;27;20438;-75
2022/06/02 03:27:20;;;;;;;11.27;9.23;;;;;;;;;;5131949;27;20458;-75
2022/06/02 03:29:53;;;;;;;9.90;8.80;;;;;;;;;;5132493;27;20516;-76
2022/06/02 03:32:27;;;;;;;12.73;9.43;;;;;;;;;;5133026;27;20192;-75
2022/06/02 03:35:00;;;;;;;11.38;9.45;;;;;;;;;;5130662;27;20184;-75
2022/06/02 03:37:36;;;;;;;12.20;9.67;;;;;;;;;;5113652;28;20689;-75
2022/06/02 03:40:14;;;;;;;11.97;9.10;;;;;;;;;;5113925;28;20951;-76
2022/06/02 03:42:45;;;;;;;11.57;10.37;;;;;;;;;;5133416;27;20444;-75
2022/06/02 03:45:22;;;;;;;10.93;9.60;;;;;;;;;;5118287;27;20427;-75
2022/06/02 03:47:55;;;;;;;10.75;9.27;;;;;;;;;;5110514;28;20566;-75
2022/06/02 03:50:28;;;;;;;10.77;9.50;;;;;;;;;;5110880;28;20212;-75
2022/06/02 03:53:05;;;;;;;10.37;9.23;;;;;;;;;;5111539;28;20449;-75
2022/06/02 03:55:39;;;;;;;10.35;8.85;;;;;;;;;;5111860;28;20453;-74
2022/06/02 03:58:17;;;;;;;10.53;9.40;;;;;;;;;;5111982;28;20243;-76
2022/06/02 04:00:47;;;;;;;11.90;10.60;;;;;;;;;;5113169;28;20796;-76
2022/06/02 04:03:20;;;;;;;12.43;11.13;;;;;;;;;;5114392;27;20193;-77
2022/06/02 04:05:52;;;;;;;13.63;12.07;;;;;;;;;;5117370;27;21860;-75
2022/06/02 04:08:28;;;;;;;14.00;9.70;;;;;;;;;;5122722;27;20437;-75
2022/06/02 04:10:57;;;;;;;19.90;11.07;;;;;;;;;;5131393;27;20468;-75
2022/06/02 04:16:19;;;;;;;13.07;11.13;;;;;;;;;;5115188;27;21027;-75
2022/06/02 04:18:53;;;;;;;15.60;10.60;;;;;;;;;;5131579;27;20429;-76
2022/06/02 04:21:26;;;;;;;12.03;10.03;;;;;;;;;;5114391;27;20476;-76
2022/06/02 04:24:11;;;;;;;13.40;10.13;;;;;;;;;;5128895;27;20558;-77
2022/06/02 04:26:48;;;;;;;13.60;12.17;;;;;;;;;;5116072;27;20801;-75
2022/06/02 04:29:21;;;;;;;16.60;10.80;;;;;;;;;;5117655;27;20473;-75
2022/06/02 04:32:03;;;;;;;11.80;10.50;;;;;;;;;;5129980;27;20506;-76
2022/06/02 04:34:34;;;;;;;11.60;9.97;;;;;;;;;;5130734;27;20871;-76
2022/06/02 04:37:06;;;;;;;14.73;11.30;;;;;;;;;;5113039;27;20464;-76
2022/06/02 04:39:39;;;;;;;12.30;10.70;;;;;;;;;;5131582;27;20937;-75
2022/06/02 04:42:10;;;;;;;13.30;10.97;;;;;;;;;;5124989;27;20796;-75
2022/06/02 04:44:41;;;;;;;15.83;9.87;;;;;;;;;;5112334;28;20442;-74
2022/06/02 04:47:13;;;;;;;11.30;9.00;;;;;;;;;;5112425;27;20532;-75
2022/06/02 04:49:44;;;;;;;13.90;10.33;;;;;;;;;;5116684;27;20489;-73
2022/06/02 04:52:15;;;;;;;11.90;9.93;;;;;;;;;;5097905;28;20904;-74
2022/06/02 04:54:47;;;;;;;14.60;8.73;;;;;;;;;;5109594;28;20445;-75
2022/06/02 04:57:20;;;;;;;11.43;8.63;;;;;;;;;;5091987;28;20462;-76
2022/06/02 04:59:50;;;;;;;10.73;9.00;;;;;;;;;;5110448;28;20443;-72
2022/06/02 05:02:28;;;;;;;10.47;8.00;;;;;;;;;;5092292;28;20438;-74
2022/06/02 05:04:57;;;;;;;10.07;7.43;;;;;;;;;;5110690;28;20449;-74
2022/06/02 05:07:30;;;;;;;8.57;6.97;;;;;;;;;;5112019;28;20465;-75
2022/06/02 05:10:06;;;;;;;10.83;7.50;;;;;;;;;;5113399;27;20490;-75
2022/06/02 05:12:39;;;;;;;8.70;7.40;;;;;;;;;;5116631;27;20789;-75
2022/06/02 05:15:11;;;;;;;10.40;7.90;;;;;;;;;;5112708;27;20439;-74
2022/06/02 05:17:48;;;;;;;8.17;7.30;;;;;;;;;;5109269;28;20462;-76
2022/06/02 05:20:23;;;;;;;8.20;6.10;;;;;;;;;;5109646;28;21020;-75
2022/06/02 05:23:02;;;;;;;9.13;7.23;;;;;;;;;;5109795;28;20412;-74
2022/06/02 05:25:41;;;;;;;7.27;6.57;;;;;;;;;;5109567;27;20403;-76
2022/06/02 05:28:18;;;;;;;7.70;6.93;;;;;;;;;;5093423;28;20962;-75
2022/06/02 05:30:54;;;;;;;9.33;8.13;;;;;;;;;;5111715;28;20492;-74
2022/06/02 05:33:29;;;;;;;10.00;9.03;;;;;;;;;;5115434;28;20430;-74
2022/06/02 05:36:11;;;;;;;8.93;8.03;;;;;;;;;;5116227;27;20918;-75
2022/06/02 05:38:45;;;;;;;8.97;8.00;;;;;;;;;;5073128;28;20435;-76
2022/06/02 05:41:22;;;;;;;9.63;8.13;;;;;;;;;;5089048;28;20488;-75
2022/06/02 05:43:57;;;;;;;10.37;8.07;;;;;;;;;;5089594;28;20431;-75
2022/06/02 05:46:30;;;;;;;9.70;8.30;;;;;;;;;;5089735;28;20451;-74
2022/06/02 05:49:04;;;;;;;13.83;10.10;;;;;;;;;;5097116;28;20473;-75
2022/06/02 05:51:35;;;;;;;11.97;10.23;;;;;;;;;;5111584;28;20947;-78
2022/06/02 05:54:09;;;;;;;9.30;8.27;;;;;;;;;;5111294;28;20446;-75
2022/06/02 05:56:44;;;;;;;11.43;7.50;;;;;;;;;;5115871;27;20449;-75
2022/06/02 05:59:19;;;;;;;9.60;8.27;;;;;;;;;;5119413;28;20435;-74
2022/06/02 06:01:53;;;;;;;9.20;8.50;;;;;;;;;;5129768;28;20445;-75
2022/06/02 06:04:30;;;;;;;9.37;8.47;;;;;;;;;;5129892;28;20439;-75
2022/06/02 06:07:01;;;;;;;10.33;8.90;;;;;;;;;;5129886;27;20858;-75
2022/06/02 06:09:36;;;;;;;11.00;8.80;;;;;;;;;;5112244;28;20481;-75
2022/06/02 06:12:18;;;;;;;11.40;9.57;;;;;;;;;;5118024;28;20452;-74
2022/06/02 06:14:52;;;;;;;11.03;9.30;;;;;;;;;;5115523;28;20442;-76
2022/06/02 06:17:24;;;;;;;10.27;9.27;;;;;;;;;;5116082;28;20464;-75
2022/06/02 06:19:57;;;;;;;12.43;11.13;;;;;;;;;;5088730;28;20478;-75
2022/06/02 06:22:33;;;;;;;10.77;9.77;;;;;;;;;;5088695;28;20444;-74
2022/06/02 06:25:06;;;;;;;9.67;8.73;;;;;;;;;;5089169;28;20445;-76
2022/06/02 06:27:36;;;;;;;11.70;9.87;;;;;;;;;;5089049;28;20451;-75
2022/06/02 06:30:07;;;;;;;12.03;10.83;;;;;;;;;;5077363;28;20814;-75
2022/06/02 06:32:38;;;;;;;14.43;12.93;;;;;;;;;;5126782;28;20435;-75
2022/06/02 06:35:13;;;;;;;16.37;11.10;;;;;;;;;;5126879;28;20466;-75
2022/06/02 06:37:53;;;;;;;11.20;10.10;;;;;;;;;;5101679;27;20449;-75
2022/06/02 06:40:27;;;;;;;10.33;9.30;;;;;;;;;;5117892;27;20430;-75
2022/06/02 06:43:00;;;;;;;10.23;9.23;;;;;;;;;;5113294;28;20508;-76
2022/06/02 06:45:33;;;;;;;9.80;8.27;;;;;;;;;;5112231;28;20915;-76
2022/06/02 06:48:02;;;;;;;8.63;7.93;;;;;;;;;;5113006;28;20486;-75
2022/06/02 06:50:32;;;;;;;10.77;8.57;;;;;;;;;;5113162;28;20486;-76
2022/06/02 06:53:15;;;;;;;10.53;9.53;;;;;;;;;;5113680;28;20442;-75
2022/06/02 06:55:48;;;;;;;11.43;10.00;;;;;;;;;;5115174;27;21642;-76
2022/06/02 06:58:21;;;;;;;10.87;8.90;;;;;;;;;;5132211;27;20423;-75
2022/06/02 07:00:53;;;;;;;12.80;9.60;;;;;;;;;;5119493;27;20815;-74
2022/06/02 07:03:25;;;;;;;8.80;8.00;;;;;;;;;;5125347;27;20438;-75
2022/06/02 07:05:54;;;;;;;13.17;11.77;;;;;;;;;;5132599;27;20461;-76
2022/06/02 07:08:25;;;;;;;9.97;9.07;;;;;;;;;;5114232;27;20434;-74
2022/06/02 07:10:56;;;;;;;11.47;10.30;;;;;;;;;;5132691;27;20815;-74
2022/06/02 07:13:38;;;;;;;10.63;8.97;;;;;;;;;;5133099;27;20522;-79
2022/06/02 07:16:12;;;;;;;13.67;10.13;;;;;;;;;;5117274;27;20466;-74
2022/06/02 07:18:45;;;;;;;10.77;9.73;;;;;;;;;;5113956;28;20442;-75
2022/06/02 07:21:17;;;;;;;11.00;9.97;;;;;;;;;;5116519;27;20445;-76
2022/06/02 07:23:50;;;;;;;9.90;8.60;;;;;;;;;;5118602;27;20442;-76
2022/06/02 07:26:32;;;;;;;10.33;9.17;;;;;;;;;;5128414;27;20878;-74
2022/06/02 07:29:05;;;;;;;14.13;12.77;;;;;;;;;;5132019;27;20434;-74
2022/06/02 07:31:45;;;;;;;9.60;8.70;;;;;;;;;;5132236;27;21110;-75
2022/06/02 07:34:21;;;;;;;13.13;10.00;;;;;;;;;;5132794;27;20475;-74
2022/06/02 07:36:59;;;;;;;9.03;8.23;;;;;;;;;;5127394;27;20466;-74
2022/06/02 07:39:41;;;;;;;8.83;8.03;;;;;;;;;;5113744;28;20434;-77
2022/06/02 07:42:15;;;;;;;10.73;9.70;;;;;;;;;;5127610;27;20438;-77
2022/06/02 07:44:57;;;;;;;11.43;10.47;;;;;;;;;;5117927;27;20429;-75
2022/06/02 07:47:38;;;;;;;11.43;10.10;;;;;;;;;;5101611;27;20866;-77
2022/06/02 07:50:10;;;;;;;10.33;9.40;;;;;;;;;;5110492;28;20489;-77
2022/06/02 07:52:42;;;;;;;13.53;12.37;;;;;;;;;;5093343;28;20445;-76
2022/06/02 07:55:19;;;;;;;13.57;12.47;;;;;;;;;;5111419;28;20446;-77
2022/06/02 07:57:51;;;;;;;11.43;10.30;;;;;;;;;;5111617;28;20495;-77
2022/06/02 08:00:19;;;;;;;12.77;10.90;;;;;;;;;;5111817;28;20458;-76
2022/06/02 08:02:57;;;;;;;8.30;7.53;;;;;;;;;;5129226;27;20453;-74
2022/06/02 08:05:31;;;;;;;11.83;10.73;;;;;;;;;;5114116;27;20434;-75
2022/06/02 08:08:00;;;;;;;10.00;9.10;;;;;;;;;;5117959;27;20461;-74
2022/06/02 08:10:33;;;;;;;9.80;8.80;;;;;;;;;;5116241;27;20574;-75
2022/06/02 08:13:04;;;;;;;10.50;9.13;;;;;;;;;;5111123;28;20434;-76
2022/06/02 08:15:38;;;;;;;11.37;10.30;;;;;;;;;;5092710;28;20829;-76
2022/06/02 08:18:15;;;;;;;10.70;9.60;;;;;;;;;;5111305;28;20546;-77
2022/06/02 08:20:48;;;;;;;9.90;8.90;;;;;;;;;;5111378;28;20445;-76
2022/06/02 08:23:20;;;;;;;9.50;8.70;;;;;;;;;;5112334;28;20449;-74
2022/06/02 08:25:52;;;;;;;10.50;9.60;;;;;;;;;;5113645;28;20503;-76
2022/06/02 08:28:25;;;;;;;8.40;7.40;;;;;;;;;;5114187;27;20431;-76
2022/06/02 08:30:57;;;;;;;10.10;9.10;;;;;;;;;;5117428;27;20557;-76
2022/06/02 08:33:32;;;;;;;10.43;7.50;;;;;;;;;;5124166;27;20776;-76
2022/06/02 08:36:04;;;;;;;9.97;9.07;;;;;;;;;;5130994;27;20433;-76
2022/06/02 08:38:46;;;;;;;9.40;8.47;;;;;;;;;;5130882;27;20441;-75
2022/06/02 08:41:31;;;;;;;10.47;9.47;;;;;;;;;;5131768;27;20776;-74
2022/06/02 08:44:09;;;;;;;7.97;6.90;;;;;;;;;;5129927;27;20790;-75
2022/06/02 08:46:54;;;;;;;8.73;7.83;;;;;;;;;;5112450;28;20999;-75
2022/06/02 08:49:31;;;;;;;8.80;7.80;;;;;;;;;;5112669;28;20443;-77
2022/06/02 08:52:13;;;;;;;9.30;8.50;;;;;;;;;;5115877;27;20640;-76
2022/06/02 08:54:53;;;;;;;7.10;6.40;;;;;;;;;;5101272;27;20508;-74
2022/06/02 08:57:34;;;;;;;6.30;5.70;;;;;;;;;;5089178;28;20466;-75
2022/06/02 09:00:18;;;;;;;6.50;5.90;;;;;;;;;;5088891;28;20543;-75
2022/06/02 09:03:08;;;;;;;6.30;5.73;;;;;;;;;;5074137;28;20432;-76
2022/06/02 09:05:45;;;;;;;7.03;6.33;;;;;;;;;;5090103;28;20463;-75
2022/06/02 09:08:21;;;;;;;6.27;5.67;;;;;;;;;;5089554;27;20429;-76
2022/06/02 09:10:58;;;;;;;7.67;6.60;;;;;;;;;;5117078;27;20482;-75
2022/06/02 09:13:39;;;;;;;7.80;7.10;;;;;;;;;;5124219;27;20433;-75
2022/06/02 09:16:18;;;;;;;8.37;7.33;;;;;;;;;;5129897;27;20533;-76
2022/06/02 09:19:01;;;;;;;10.10;7.83;;;;;;;;;;5112122;28;20520;-77
2022/06/02 09:21:35;;;;;;;9.17;8.10;;;;;;;;;;5129582;27;20446;-77
2022/06/02 09:24:06;;;;;;;8.20;7.30;;;;;;;;;;5127225;27;20434;-76
2022/06/02 09:26:47;;;;;;;6.53;5.93;;;;;;;;;;5111882;27;21300;-76
2022/06/02 09:29:23;;;;;;;9.43;8.53;;;;;;;;;;5116139;27;20434;-75
2022/06/02 09:31:56;;;;;;;6.87;6.13;;;;;;;;;;5095473;28;20886;-76
2022/06/02 09:34:32;;;;;;;8.10;7.30;;;;;;;;;;5109861;28;20770;-76
2022/06/02 09:37:10;;;;;;;8.00;6.40;;;;;;;;;;5109544;28;20458;-75
2022/06/02 09:39:45;;;;;;;8.17;6.63;;;;;;;;;;5091962;28;20445;-76
2022/06/02 09:42:24;;;;;;;10.83;6.97;;;;;;;;;;5109958;28;20445;-76
2022/06/02 09:44:59;;;;;;;7.90;7.10;;;;;;;;;;5110878;28;20462;-76
2022/06/02 09:47:33;;;;;;;10.67;6.27;;;;;;;;;;5111913;28;20464;-76
2022/06/02 09:50:11;;;;;;;6.20;5.70;;;;;;;;;;5113798;28;20521;-76
2022/06/02 09:52:50;;;;;;;6.60;5.90;;;;;;;;;;5116066;28;20838;-77
2022/06/02 09:55:30;;;;;;;5.73;5.23;;;;;;;;;;5111022;28;20443;-76
2022/06/02 09:58:06;;;;;;;6.10;5.50;;;;;;;;;;5109438;28;20462;-76
2022/06/02 10:00:44;;;;;;;5.33;4.20;;;;;;;;;;5109488;28;20438;-75
2022/06/02 10:03:22;;;;;;;4.90;4.50;;;;;;;;;;5109665;28;20434;-77
2022/06/02 10:06:00;;;;;;;4.67;4.27;;;;;;;;;;5091476;28;20444;-76
2022/06/02 10:08:34;;;;;;;7.00;5.90;;;;;;;;;;5114606;28;20430;-76
2022/06/02 10:11:08;;;;;;;7.97;5.10;;;;;;;;;;5117931;27;20987;-76
2022/06/02 10:13:46;;;;;;;6.70;6.00;;;;;;;;;;5131480;27;20797;-76
2022/06/02 10:16:24;;;;;;;5.90;5.30;;;;;;;;;;5133316;27;21074;-75
2022/06/02 10:18:57;;;;;;;6.40;5.10;;;;;;;;;;5133963;27;20440;-75
2022/06/02 10:21:33;;;;;;;12.13;5.80;;;;;;;;;;5134241;27;20998;-75
2022/06/02 10:24:12;;;;;;;7.07;5.33;;;;;;;;;;5127413;27;20458;-76
2022/06/02 10:26:45;;;;;;;5.77;5.17;;;;;;;;;;5115121;28;20455;-75
2022/06/02 10:29:27;;;;;;;6.20;5.60;;;;;;;;;;5115180;28;20452;-76
2022/06/02 10:32:09;;;;;;;6.80;4.80;;;;;;;;;;5119948;27;20483;-75
2022/06/02 10:34:46;;;;;;;4.53;4.13;;;;;;;;;;5106608;27;20433;-74
2022/06/02 10:37:26;;;;;;;4.90;4.43;;;;;;;;;;5133621;27;20441;-78
2022/06/02 10:40:04;;;;;;;4.77;4.23;;;;;;;;;;5132865;27;20798;-77
2022/06/02 10:42:36;;;;;;;3.80;3.50;;;;;;;;;;5115462;27;20795;-76
2022/06/02 10:45:16;;;;;;;3.67;3.37;;;;;;;;;;5133952;27;20484;-75
2022/06/02 10:48:00;;;;;;;5.20;3.80;;;;;;;;;;5118478;27;20464;-75
2022/06/02 10:50:34;;;;;;;4.63;4.23;;;;;;;;;;5114863;28;20953;-74
2022/06/02 10:53:21;;;;;;;4.50;4.10;;;;;;;;;;5115872;27;20434;-74
2022/06/02 10:56:00;;;;;;;4.23;3.77;;;;;;;;;;5118908;27;20438;-73
2022/06/02 10:58:42;;;;;;;4.67;3.60;;;;;;;;;;5127163;27;20440;-74
2022/06/02 11:01:24;;;;;;;4.23;3.83;;;;;;;;;;5117328;27;20843;-75
2022/06/02 11:04:06;;;;;;;4.73;4.33;;;;;;;;;;5116981;27;20517;-75
2022/06/02 11:06:51;;;;;;;5.00;4.50;;;;;;;;;;5132541;27;21135;-74
2022/06/02 11:09:33;;;;;;;5.67;4.27;;;;;;;;;;5127816;27;20458;-75
2022/06/02 11:12:09;;;;;;;5.80;5.30;;;;;;;;;;5114302;27;20482;-74
2022/06/02 11:14:46;;;;;;;5.30;4.80;;;;;;;;;;5114510;28;20438;-75
2022/06/02 11:17:24;;;;;;;5.53;4.47;;;;;;;;;;5118311;27;20465;-74
2022/06/02 11:20:06;;;;;;;4.80;4.40;;;;;;;;;;5120459;27;20435;-74
2022/06/02 11:22:48;;;;;;;3.90;3.60;;;;;;;;;;5115487;27;20859;-75
2022/06/02 11:25:20;;;;;;;4.33;3.97;;;;;;;;;;5116417;27;20805;-74
2022/06/02 11:28:08;;;;;;;4.30;3.50;;;;;;;;;;5133062;27;20450;-77
2022/06/02 11:30:45;;;;;;;5.07;3.60;;;;;;;;;;5132616;27;20922;-74
2022/06/02 11:33:22;;;;;;;5.17;4.30;;;;;;;;;;5117763;27;20438;-74
2022/06/02 11:36:04;;;;;;;5.20;4.27;;;;;;;;;;5114100;28;20445;-75
2022/06/02 11:38:46;;;;;;;5.33;4.47;;;;;;;;;;5129633;27;20819;-74
2022/06/02 11:41:23;;;;;;;3.47;3.20;;;;;;;;;;5102860;27;20470;-74
2022/06/02 11:43:59;;;;;;;3.50;3.20;;;;;;;;;;5113952;27;20434;-75
2022/06/02 11:46:34;;;;;;;4.20;3.43;;;;;;;;;;5111767;28;20465;-74
2022/06/02 11:49:11;;;;;;;3.83;3.53;;;;;;;;;;5111543;28;20516;-74
2022/06/02 11:51:46;;;;;;;4.33;3.93;;;;;;;;;;5112064;28;20488;-75
2022/06/02 11:54:26;;;;;;;4.33;3.80;;;;;;;;;;5110999;28;20434;-75
2022/06/02 11:57:05;;;;;;;4.40;4.00;;;;;;;;;;5117088;27;20961;-74
2022/06/02 11:59:46;;;;;;;4.07;3.67;;;;;;;;;;5115873;27;20433;-74
2022/06/02 12:02:27;;;;;;;4.50;4.00;;;;;;;;;;5111232;28;20438;-74
2022/06/02 12:05:01;;;;;;;4.03;3.70;;;;;;;;;;5110940;28;20441;-74
2022/06/02 12:07:48;;;;;;;3.57;3.23;;;;;;;;;;5110951;28;20464;-75
2022/06/02 12:10:27;;;;;;;3.57;3.30;;;;;;;;;;5110971;28;20409;-74
2022/06/02 12:13:06;;;;;;;4.43;3.20;;;;;;;;;;5096879;27;20565;-74
2022/06/02 12:15:38;;;;;;;4.37;3.97;;;;;;;;;;5118204;27;20462;-73
2022/06/02 12:18:19;;;;;;;3.83;3.50;;;;;;;;;;5112183;27;20466;-75
2022/06/02 12:20:58;;;;;;;5.33;4.00;;;;;;;;;;5110591;28;20784;-75
2022/06/02 12:23:32;;;;;;;4.07;3.60;;;;;;;;;;5111378;28;20992;-76
2022/06/02 12:26:02;;;;;;;4.03;3.73;;;;;;;;;;5116937;27;20974;-75
2022/06/02 12:28:44;;;;;;;5.67;4.27;;;;;;;;;;5108148;28;20451;-77
2022/06/02 12:31:26;;;;;;;3.97;3.67;;;;;;;;;;5126502;27;20486;-74
2022/06/02 12:34:05;;;;;;;3.10;2.80;;;;;;;;;;5112074;27;20443;-75
2022/06/02 12:36:40;;;;;;;3.70;3.40;;;;;;;;;;5117017;27;20459;-75
2022/06/02 12:39:20;;;;;;;4.60;4.20;;;;;;;;;;5116920;27;20445;-76
2022/06/02 12:41:56;;;;;;;3.97;3.67;;;;;;;;;;5110209;28;20430;-74
2022/06/02 12:44:32;;;;;;;3.60;2.90;;;;;;;;;;5110579;28;20434;-74
2022/06/02 12:47:04;;;;;;;3.83;3.40;;;;;;;;;;5110397;28;21010;-75
2022/06/02 12:49:51;;;;;;;3.17;2.87;;;;;;;;;;5111007;28;20441;-75
2022/06/02 12:52:28;;;;;;;5.07;3.73;;;;;;;;;;5111292;28;20493;-75
2022/06/02 12:55:06;;;;;;;3.67;3.37;;;;;;;;;;5112756;28;20454;-75
2022/06/02 12:57:48;;;;;;;3.07;2.80;;;;;;;;;;5120050;27;20458;-72
2022/06/02 13:00:30;;;;;;;4.77;3.53;;;;;;;;;;5116049;27;20437;-75
2022/06/02 13:03:14;;;;;;;4.27;3.77;;;;;;;;;;5122198;27;20456;-80
2022/06/02 13:05:58;;;;;;;3.63;3.27;;;;;;;;;;5130498;27;20434;-76
2022/06/02 13:08:40;;;;;;;3.57;3.27;;;;;;;;;;5130896;27;20433;-77
2022/06/02 13:11:21;;;;;;;3.90;2.90;;;;;;;;;;5115331;27;20437;-76
2022/06/02 13:14:04;;;;;;;3.27;3.07;;;;;;;;;;5128176;27;20433;-78
2022/06/02 13:16:46;;;;;;;3.33;3.00;;;;;;;;;;5125519;27;20477;-75
2022/06/02 13:19:24;;;;;;;3.90;3.57;;;;;;;;;;5112327;28;20449;-78
2022/06/02 13:22:06;;;;;;;3.40;3.10;;;;;;;;;;5116235;27;20431;-79
2022/06/02 13:24:44;;;;;;;5.23;3.40;;;;;;;;;;5116103;27;20457;-77
2022/06/02 13:27:30;;;;;;;4.53;2.90;;;;;;;;;;5114461;28;20450;-77
2022/06/02 13:30:04;;;;;;;3.10;2.90;;;;;;;;;;5089088;28;20522;-77
2022/06/02 13:32:49;;;;;;;4.90;3.10;;;;;;;;;;5071516;28;21090;-76
2022/06/02 13:35:24;;;;;;;3.10;2.70;;;;;;;;;;5089800;28;20447;-78
2022/06/02 13:38:06;;;;;;;3.50;2.83;;;;;;;;;;5086103;28;20983;-77
2022/06/02 13:40:39;;;;;;;3.27;2.93;;;;;;;;;;5126051;28;20434;-78
2022/06/02 13:43:31;;;;;;;2.60;2.40;;;;;;;;;;5113724;28;20433;-74
2022/06/02 13:46:12;;;;;;;3.03;2.47;;;;;;;;;;5119214;27;20445;-75
2022/06/02 13:48:54;;;;;;;3.07;2.77;;;;;;;;;;5128723;27;20524;-74
2022/06/02 13:51:36;;;;;;;2.47;2.27;;;;;;;;;;5133809;27;20437;-80
2022/06/02 13:59:54;;;;;;;3.20;2.33;;;;;;;;;;5126855;27;20841;-75
2022/06/02 14:02:36;;;;;;;3.23;2.93;;;;;;;;;;5116187;28;20786;-77
2022/06/02 14:05:10;;;;;;;3.90;2.70;;;;;;;;;;5116052;28;20438;-77
2022/06/02 14:07:46;;;;;;;2.53;2.33;;;;;;;;;;5119954;27;20450;-76
2022/06/02 14:10:28;;;;;;;2.60;2.40;;;;;;;;;;5122154;27;20524;-76
2022/06/02 14:13:05;;;;;;;2.73;2.07;;;;;;;;;;5133166;27;20569;-76
2022/06/02 14:15:43;;;;;;;2.50;2.27;;;;;;;;;;5133954;27;20436;-77
2022/06/02 14:18:19;;;;;;;3.43;2.23;;;;;;;;;;5133874;27;21027;-77
2022/06/02 14:20:52;;;;;;;2.80;2.60;;;;;;;;;;5134386;27;20444;-76
2022/06/02 14:23:30;;;;;;;3.20;3.00;;;;;;;;;;5119992;27;20445;-76
2022/06/02 14:26:03;;;;;;;2.70;2.50;;;;;;;;;;5121567;27;20801;-76
2022/06/02 14:28:45;;;;;;;3.13;2.40;;;;;;;;;;5131341;27;20438;-75
2022/06/02 14:31:21;;;;;;;2.40;2.20;;;;;;;;;;5104188;27;20426;-75
2022/06/02 14:33:50;;;;;;;2.20;2.00;;;;;;;;;;5126675;27;20487;-74
2022/06/02 14:36:22;;;;;;;5.43;2.87;;;;;;;;;;5115149;27;20469;-75
2022/06/02 14:38:54;;;;;;;2.43;2.23;;;;;;;;;;5133483;27;20918;-73
2022/06/02 14:41:26;;;;;;;3.03;2.80;;;;;;;;;;5115986;27;20430;-76
2022/06/02 14:44:04;;;;;;;2.90;2.63;;;;;;;;;;5133790;27;20460;-75
2022/06/02 14:46:38;;;;;;;4.13;2.40;;;;;;;;;;5115167;27;20485;-75
2022/06/02 14:49:10;;;;;;;4.40;2.97;;;;;;;;;;5115097;28;20438;-75
2022/06/02 14:51:39;;;;;;;2.27;2.07;;;;;;;;;;5116284;27;20434;-75
2022/06/02 14:54:18;;;;;;;2.60;2.10;;;;;;;;;;5101569;27;20449;-75
2022/06/02 14:56:54;;;;;;;2.63;2.43;;;;;;;;;;5125357;27;20456;-76
2022/06/02 14:59:31;;;;;;;3.47;2.70;;;;;;;;;;5132677;27;20442;-75
2022/06/02 15:02:10;;;;;;;2.40;2.20;;;;;;;;;;5133462;27;20835;-77
2022/06/02 15:04:44;;;;;;;2.50;2.20;;;;;;;;;;5115419;27;20926;-78
2022/06/02 15:07:28;;;;;;;2.63;2.43;;;;;;;;;;5132137;27;21023;-76
2022/06/02 15:09:59;;;;;;;2.80;2.60;;;;;;;;;;5114613;28;20450;-73
2022/06/02 15:12:36;;;;;;;2.40;2.20;;;;;;;;;;5114407;28;20490;-75
2022/06/02 15:15:13;;;;;;;4.57;2.50;;;;;;;;;;5116746;27;20422;-74
2022/06/02 15:17:49;;;;;;;3.33;2.03;;;;;;;;;;5118928;27;20797;-78
2022/06/02 15:20:25;;;;;;;2.13;2.00;;;;;;;;;;5129082;27;20438;-75
2022/06/02 15:23:07;;;;;;;2.10;1.90;;;;;;;;;;5132532;27;20476;-86
2022/06/02 15:25:38;;;;;;;2.40;2.20;;;;;;;;;;5113657;27;20426;-75
2022/06/02 15:28:11;;;;;;;2.60;2.40;;;;;;;;;;5128301;27;20450;-75
2022/06/02 15:30:42;;;;;;;2.47;2.27;;;;;;;;;;5112063;28;20458;-76
2022/06/02 15:33:24;;;;;;;2.10;2.00;;;;;;;;;;5114152;28;20838;-74
2022/06/02 15:36:03;;;;;;;3.17;2.23;;;;;;;;;;5114275;27;20441;-76
2022/06/02 15:38:43;;;;;;;2.17;1.97;;;;;;;;;;5117357;27;20434;-75
2022/06/02 15:41:25;;;;;;;2.30;2.10;;;;;;;;;;5118530;27;20442;-75